• Join FlightAware (Why Join?)
  • Login
  • US Flag GB Flag 
09:14 EDT


 

Airport Tracker/Info


-or-


 

Live Flight TrackerFlight Track Log ✈ SWA1725 ✈ 11-Apr-2013 ✈ KSMF - KMDW

Flight Track Log - Related Links

Times and Time Zones

All times are in EDT time to prevent confusion due to time zone crossing. See the SWA1725 flight status page for this flight to view local times or setup timezone preferences in your user account.

Time Position Orientation Groundspeed Altitude Reporting Facility
EDT Latitude Longitude Course Direction KTS MPH feet Rate Location/Type
17:43 38.7167 -121.6000 49° Northeast 144 166 1,300  Level Northern Cal TRACON
17:44 38.7500 -121.5500 49° Northeast 223 257 2,900 2,100 Climbing Northern Cal TRACON
17:45 38.7500 -121.4667 90° East 268 308 5,600 2,700 Climbing Northern Cal TRACON
17:47 38.7444 -121.2889 92° East 286 329 10,800 2,700 Climbing Oakland Center
17:48 38.7397 -121.1644 93° East 344 396 13,500 2,760 Climbing Oakland Center
17:49 38.7344 -121.0372 93° East 353 406 16,500 2,640 Climbing Oakland Center
17:50 38.7289 -120.9033 93° East 369 425 18,900 2,220 Climbing Oakland Center
17:51 38.7222 -120.7617 93° East 393 452 21,100 2,040 Climbing Oakland Center
17:52 38.7164 -120.6150 93° East 409 471 23,200 2,160 Climbing Oakland Center
17:53 38.7072 -120.4319 94° East 426 490 25,500 2,040 Climbing Oakland Center
17:54 38.6992 -120.2744 94° East 441 507 27,400 1,680 Climbing Oakland Center
17:55 38.6919 -120.1150 93° East 447 514 29,000 1,380 Climbing Oakland Center
17:56 38.6839 -119.9511 94° East 458 527 30,300 1,320 Climbing Oakland Center
17:57 38.6753 -119.7744 94° East 468 539 31,800 1,320 Climbing Oakland Center
17:58 38.6644 -119.6281 95° East 472 543 33,000 1,320 Climbing Oakland Center
17:59 38.6531 -119.4275 94° East 473 544 34,600 1,320 Climbing Oakland Center
18:00 38.6436 -119.2619 94° East 471 542 35,800 1,140 Climbing Oakland Center
18:01 38.6342 -119.0958 94° East 471 542 37,000 540 Climbing Oakland Center
18:02 38.6236 -118.9308 95° East 470 541 37,000  Level Oakland Center
18:03 38.6133 -118.7628 94° East 474 545 37,000  Level Oakland Center
18:04 38.6031 -118.5933 94° East 481 554 37,000  Level Oakland Center
18:05 38.5928 -118.4236 94° East 482 555 37,000  Level Oakland Center
18:06 38.6258 -118.2272 78° East 472 543 37,000  Level Oakland Center
18:07 38.6600 -118.0664 75° East 471 542 37,000  Level Oakland Center
18:08 38.6944 -117.9056 75° East 472 543 37,000  Level Oakland Center
18:09 38.7300 -117.7389 75° East 471 542 37,000  Level Oakland Center
18:10 38.7644 -117.5772 75° East 468 539 37,000  Level Oakland Center
18:11 38.7983 -117.4175 75° East 464 534 37,000  Level Oakland Center
18:12 38.8311 -117.2558 75° East 465 535 37,000  Level Salt Lake Center
18:13 38.8656 -117.0936 75° East 469 540 37,000  Level Salt Lake Center
18:14 38.9000 -116.9300 75° East 472 543 37,000  Level Oakland Center
18:15 38.9342 -116.7656 75° East 475 547 37,000  Level Salt Lake Center
18:16 38.9672 -116.6011 75° East 474 545 37,000  Level Salt Lake Center
18:17 39.0011 -116.4364 75° East 476 548 37,000  Level Salt Lake Center
18:18 39.0356 -116.2686 75° East 483 556 37,000  Level Salt Lake Center
18:19 39.0678 -116.1011 76° East 482 555 37,000  Level Salt Lake Center
18:20 39.1014 -115.9356 75° East 478 550 37,000  Level Salt Lake Center
18:21 39.1375 -115.7528 76° East 480 552 37,000  Level Salt Lake Center
18:22 39.1744 -115.5667 76° East 481 554 37,000  Level Salt Lake Center
18:23 39.2044 -115.4086 76° East 478 550 37,000  Level Salt Lake Center
18:24 39.2347 -115.2506 76° East 476 548 37,000  Level Salt Lake Center
18:25 39.2708 -115.0658 76° East 476 548 37,000  Level Salt Lake Center
18:26 39.2981 -114.9117 77° East 467 537 37,000  Level Salt Lake Center
18:28 39.3344 -114.7250 76° East 479 551 37,000  Level Salt Lake Center
18:29 39.3622 -114.5675 77° East 472 543 37,000  Level Salt Lake Center
18:30 39.3969 -114.3822 76° East 473 544 37,000  Level Salt Lake Center
18:31 39.4264 -114.2356 75° East 482 555 37,000  Level Salt Lake Center
18:32 39.4611 -114.0389 77° East 470 541 37,000  Level Salt Lake Center
18:33 39.4908 -113.8736 77° East 470 541 37,000  Level Salt Lake Center
18:34 39.5197 -113.7100 77° East 468 539 37,000  Level Salt Lake Center
18:35 39.5483 -113.5467 77° East 465 535 37,000  Level Salt Lake Center
18:36 39.5753 -113.3847 78° East 460 529 37,000  Level Salt Lake Center
18:37 39.6036 -113.2242 77° East 458 527 37,000  Level Salt Lake Center
18:38 39.6314 -113.0622 77° East 459 528 37,000  Level Salt Lake Center
18:39 39.6594 -112.9006 77° East 459 528 37,000  Level Salt Lake Center
18:40 39.6919 -112.7058 78° East 460 529 37,000  Level Salt Lake Center
18:41 39.7200 -112.5383 78° East 463 533 37,000  Level Salt Lake Center
18:42 39.7469 -112.3767 78° East 461 531 37,000  Level Salt Lake Center
18:43 39.7733 -112.2136 78° East 463 533 37,000  Level Salt Lake Center
18:44 39.8008 -112.0506 78° East 465 535 37,000  Level Salt Lake Center
18:45 39.8267 -111.8858 78° East 466 536 37,000  Level Salt Lake Center
18:46 39.8528 -111.7200 78° East 472 543 37,000  Level Salt Lake Center
18:47 39.8808 -111.5486 78° East 467 537 37,000  Level Salt Lake Center
18:48 39.9081 -111.3619 79° East 468 539 37,000  Level Salt Lake Center
18:49 39.9336 -111.2025 78° East 469 540 37,000  Level Salt Lake Center
18:50 39.9614 -111.0189 79° East 464 534 37,000  Level Salt Lake Center
18:51 39.9853 -110.8603 79° East 465 535 37,000  Level Salt Lake Center
18:52 40.0131 -110.6753 79° East 466 536 37,000  Level Salt Lake Center
18:53 40.0361 -110.5192 79° East 461 531 37,000  Level Salt Lake Center
18:54 40.0594 -110.3611 79° East 463 533 37,000  Level Salt Lake Center
18:55 40.0853 -110.1767 80° East 463 533 37,000  Level Salt Lake Center
18:56 40.1072 -110.0183 80° East 464 534 37,000  Level Salt Lake Center
18:57 40.1350 -109.8325 79° East 466 536 37,000  Level Salt Lake Center
18:58 40.1558 -109.6722 80° East 466 536 37,000  Level Salt Lake Center
18:59 40.1783 -109.5119 80° East 467 537 37,000  Level Salt Lake Center
19:00 40.2042 -109.3222 80° East 472 543 37,000  Level Salt Lake Center
19:01 40.2258 -109.1606 80° East 471 542 37,000  Level Salt Lake Center
19:02 40.2517 -108.9717 80° East 471 542 37,000  Level Salt Lake Center
19:03 40.2728 -108.8106 80° East 467 537 37,000  Level Salt Lake Center
19:05 40.2953 -108.6386 80° East 470 541 37,000  Level Salt Lake Center
19:06 40.3211 -108.4289 81° East 471 542 37,000  Level Denver Center
19:07 40.3428 -108.2683 80° East 467 537 37,000  Level Denver Center
19:08 40.3625 -108.1081 81° East 464 534 37,000  Level Denver Center
19:09 40.3853 -107.9214 81° East 465 535 37,000  Level Denver Center
19:10 40.4056 -107.7617 80° East 464 534 37,000  Level Denver Center
19:11 40.4286 -107.5717 81° East 470 541 37,000  Level Denver Center
19:12 40.4472 -107.4089 81° East 471 542 37,000  Level Denver Center
19:13 40.4700 -107.2169 81° East 474 545 37,000  Level Denver Center
19:14 40.4886 -107.0597 81° East 479 551 37,000  Level Denver Center
19:15 40.5078 -106.8861 82° East 478 550 37,000  Level Denver Center
19:16 40.5283 -106.7103 81° East 482 555 37,000  Level Denver Center
19:17 40.5486 -106.5322 81° East 487 560 37,000  Level Denver Center
19:18 40.5731 -106.3222 81° East 490 564 37,000  Level Denver Center
19:19 40.5903 -106.1414 83° East 498 573 37,000  Level Denver Center
19:20 40.6097 -105.9608 82° East 495 570 37,000  Level Denver Center
19:21 40.6272 -105.7811 83° East 491 565 37,000  Level Denver Center
19:22 40.6464 -105.5989 82° East 496 571 37,000  Level Denver Center
19:23 40.6650 -105.4189 82° East 491 565 37,000  Level Denver Center
19:24 40.6828 -105.2397 82° East 489 563 37,000  Level Denver Center
19:25 40.7036 -105.0292 82° East 490 564 37,000  Level Denver Center
19:26 40.7217 -104.8500 82° East 488 562 37,000  Level Denver Center
19:27 40.7381 -104.6678 83° East 492 566 37,000  Level Denver Center
19:28 40.7547 -104.4856 83° East 494 568 37,000  Level Denver Center
19:29 40.7719 -104.3039 83° East 495 570 37,000  Level Denver Center
19:30 40.7881 -104.1214 83° East 495 570 37,000  Level Denver Center
19:31 40.8031 -103.9419 84° East 488 562 37,000  Level Denver Center
19:32 40.8197 -103.7622 83° East 488 562 37,000  Level Denver Center
19:33 40.8344 -103.5819 84° East 488 562 37,000  Level Denver Center
19:34 40.8522 -103.3703 84° East 493 567 37,000  Level Denver Center
19:36 40.8667 -103.1900 84° East 491 565 37,000  Level Denver Center
19:37 40.8814 -103.0067 84° East 495 570 37,000  Level Denver Center
19:38 40.8942 -102.8308 84° East 500 575 37,000  Level Denver Center
19:39 40.9108 -102.6297 84° East 495 570 37,000  Level Denver Center
19:40 40.9233 -102.4575 84° East 493 567 37,000  Level Denver Center
19:41 40.9383 -102.2569 84° East 492 566 37,000  Level Denver Center
19:42 40.9533 -102.0553 84° East 492 566 37,000  Level Denver Center
19:43 40.9675 -101.8531 85° East 492 566 37,000  Level Denver Center
19:44 40.9797 -101.6792 85° East 495 570 37,000  Level Denver Center
19:45 40.9931 -101.4750 85° East 499 574 37,000  Level Denver Center
19:46 41.0047 -101.2997 85° East 499 574 37,000  Level Denver Center
19:47 41.0169 -101.0933 85° East 501 577 37,000  Level Denver Center
19:48 41.0283 -100.9175 85° East 497 572 37,000  Level Denver Center
19:49 41.0381 -100.7400 86° East 497 572 37,000  Level Denver Center
19:50 41.0511 -100.5344 85° East 495 570 37,000  Level Denver Center
19:51 41.0606 -100.3608 86° East 492 566 37,000  Level Denver Center
19:52 41.0722 -100.1578 86° East 493 567 37,000  Level Denver Center
19:53 41.0811 -99.9842 86° East 493 567 37,000  Level Denver Center
19:54 41.0914 -99.7836 86° East 490 564 37,000  Level Denver Center
19:55 41.1006 -99.6111 86° East 489 563 37,000  Level Denver Center
19:56 41.1100 -99.4194 86° East 492 566 37,000  Level Denver Center
19:57 41.1186 -99.2386 86° East 492 566 37,000  Level Denver Center
19:58 41.1267 -99.0611 86° East 495 570 37,000  Level Denver Center
20:00 41.1356 -98.8567 87° East 496 571 37,000  Level Denver Center
20:00 41.1394 -98.7828 86° East 496 571 37,000  Level Minneapolis Center
20:01 41.1461 -98.6003 87° East 496 571 37,000  Level Minneapolis Center
20:02 41.1533 -98.4153 87° East 497 572 37,000  Level Minneapolis Center
20:03 41.1606 -98.2292 87° East 501 577 37,000  Level Minneapolis Center
20:04 41.1681 -98.0036 87° East 506 582 37,000  Level Minneapolis Center
20:05 41.1744 -97.8139 87° East 510 587 37,000  Level Minneapolis Center
20:06 41.1758 -97.6225 89° East 515 593 37,000  Level Minneapolis Center
20:07 41.1269 -97.4517 111° Southeast 491 565 37,000  Level Minneapolis Center
20:08 41.0472 -97.3167 128° Southeast 476 548 37,000  Level Minneapolis Center
20:09 40.9628 -97.1811 129° Southeast 476 548 37,000  Level Minneapolis Center
20:10 40.8633 -97.0183 129° Southeast 476 548 37,000  Level Minneapolis Center
20:11 40.7817 -96.8858 129° Southeast 472 543 37,000  Level Minneapolis Center
20:12 40.6978 -96.7503 129° Southeast 475 547 37,000  Level Minneapolis Center
20:13 40.6289 -96.6033 122° Southeast 484 557 37,000  Level Minneapolis Center
20:14 40.6422 -96.4239 84° East 496 571 37,000  Level Minneapolis Center
20:15 40.6619 -96.2433 82° East 500 575 37,000  Level Minneapolis Center
20:16 40.6844 -96.0281 82° East 498 573 37,000  Level Minneapolis Center
20:17 40.7011 -95.8492 83° East 497 572 37,000  Level Minneapolis Center
20:19 40.7192 -95.6714 82° East 495 570 37,000  Level Minneapolis Center
20:20 40.7367 -95.4933 83° East 494 568 37,000  Level Minneapolis Center
20:21 40.7539 -95.3147 83° East 494 568 37,000  Level Minneapolis Center
20:22 40.7717 -95.1369 82° East 493 567 37,000  Level Minneapolis Center
20:23 40.7919 -94.9256 83° East 490 564 37,000  Level Minneapolis Center
20:24 40.8078 -94.7494 83° East 488 562 37,000  Level Minneapolis Center
20:25 40.8231 -94.5719 83° East 488 562 37,000  Level Minneapolis Center
20:26 40.8369 -94.3997 84° East 485 558 37,000  Level Minneapolis Center
20:27 40.8536 -94.2250 83° East 484 557 37,000  Level Minneapolis Center
20:28 40.8694 -94.0458 83° East 489 563 37,000  Level Minneapolis Center
20:29 40.8828 -93.8694 84° East 488 562 37,000  Level Minneapolis Center
20:30 40.8989 -93.6575 84° East 486 559 37,000 -300 Level Minneapolis Center
20:31 40.9153 -93.4800 83° East 488 562 36,400 -840 Descending Minneapolis Center
20:32 40.9292 -93.3039 84° East 486 559 35,400 -720 Descending Minneapolis Center
20:33 40.9419 -93.1317 84° East 477 549 35,000 -240 Descending Minneapolis Center
20:34 40.9558 -92.9536 84° East 481 554 35,000  Level Minneapolis Center
20:35 40.9650 -92.8425 84° East 493 567 35,000  Level Chicago Center
20:36 40.9781 -92.6603 85° East 497 572 35,000  Level Chicago Center
20:37 40.9936 -92.4444 84° East 494 568 35,000  Level Chicago Center
20:38 41.0067 -92.2639 84° East 494 568 35,000  Level Chicago Center
20:39 41.0194 -92.0783 85° East 505 581 35,000  Level Chicago Center
20:40 41.0322 -91.8931 85° East 508 585 35,000  Level Chicago Center
20:41 41.0428 -91.7044 86° East 512 589 35,000 -60 Level Chicago Center
20:42 41.0569 -91.4931 85° East 514 592 34,900 -1,320 Descending Chicago Center
20:43 41.0692 -91.3047 85° East 513 590 32,300 -2,520 Descending Chicago Center
20:44 41.0797 -91.1222 86° East 500 575 29,700 -2,460 Descending Chicago Center
20:45 41.0889 -90.9483 86° East 474 545 27,300 -1,980 Descending Chicago Center
20:46 41.0997 -90.7806 85° East 461 531 25,700 -1,620 Descending Chicago Center
20:47 41.1103 -90.5856 86° East 443 510 24,000 -1,200 Descending Chicago Center
20:48 41.1186 -90.4278 86° East 432 497 23,200 -1,320 Descending Chicago Center
20:49 41.1272 -90.2714 86° East 425 489 21,300 -1,860 Descending Chicago Center
20:50 41.1336 -90.1203 87° East 415 478 19,400 -2,040 Descending Chicago Center
20:51 41.1414 -89.9733 86° East 403 464 17,200 -2,040 Descending Chicago Center
20:52 41.1492 -89.8336 86° East 386 444 15,300 -1,020 Descending Chicago Center
20:53 41.1553 -89.6983 87° East 378 435 15,100 -120 Descending Chicago Center
20:54 41.1628 -89.5458 86° East 352 405 15,100  Level Chicago Center
20:55 41.1722 -89.4194 84° East 343 395 15,100 -420 Level Chicago Center
20:56 41.1806 -89.2886 85° East 352 405 14,300 -900 Descending Chicago Center
20:57 41.1886 -89.1636 85° East 354 407 13,300 -1,020 Descending Chicago Center
20:58 41.2292 -89.0469 65° Northeast 349 402 12,300 -1,080 Descending Chicago Center
20:59 41.2861 -88.9144 60° Northeast 345 397 11,100 -1,140 Descending Chicago Center
21:00 41.3325 -88.8106 59° Northeast 330 380 10,000 -1,200 Descending Chicago Center
21:01 41.3753 -88.7092 61° Northeast 318 366 8,700 -1,260 Descending Chicago Center
21:03 41.4208 -88.6100 58° Northeast 314 361 7,500 -1,020 Descending Chicago Center
21:04 41.4597 -88.5144 61° Northeast 297 342 6,600 -780 Descending Chicago Center
21:05 41.4775 -88.4131 77° East 282 325 6,000 -780 Descending Chicago Center
21:06 41.4989 -88.2906 77° East 282 325 5,000 -540 Descending Chicago Center
21:07 41.5161 -88.1922 77° East 273 314 5,000  Level Chicago Center
21:08 41.5336 -88.0922 77° East 273 314 5,000  Level Chicago Center
21:09 41.5517 -87.9906 77° East 276 318 5,000 -120 Level Chicago Center
21:10 41.5689 -87.8897 77° East 277 319 4,800 -600 Descending Chicago Center
21:11 41.5856 -87.7894 77° East 277 319 3,800 -780 Descending Chicago Center
21:12 41.5911 -87.6969 85° East 263 303 3,300 -660 Descending Chicago Center
21:13 41.6356 -87.6233 51° Northeast 232 267 2,500 -420 Descending Chicago Center
21:14 41.6861 -87.6211 North 213 245 2,500  Level Chicago Center
21:14 41.7000 -87.6333 327° Northwest 180 207 2,500 -480 Level Chicago TRACON
21:15 41.7333 -87.6833 312° West 172 198 1,900 -720 Descending Chicago TRACON
21:16 41.7667 -87.7333 312° West 136 157 1,100 -780 Descending Chicago TRACON